createdAt,value
2022-08-25T00:01:37.207Z,21.96
2022-08-25T00:04:29.986Z,21.93
2022-08-25T00:07:19.218Z,21.87
2022-08-25T00:10:07.151Z,21.84
2022-08-25T00:13:00.222Z,21.81
2022-08-25T00:15:47.300Z,21.78
2022-08-25T00:18:49.968Z,21.75
2022-08-25T00:21:56.990Z,21.72
2022-08-25T00:28:05.206Z,21.66
2022-08-25T00:31:04.735Z,21.61
2022-08-25T00:33:57.398Z,21.59
2022-08-25T00:36:48.277Z,21.55
2022-08-25T00:39:41.367Z,21.53
2022-08-25T00:42:32.774Z,21.50
2022-08-25T00:45:22.309Z,21.47
2022-08-25T00:48:16.534Z,21.43
2022-08-25T00:51:08.605Z,21.40
2022-08-25T00:54:10.328Z,21.36
2022-08-25T00:57:08.323Z,21.34
2022-08-25T01:00:05.546Z,21.31
2022-08-25T01:03:00.314Z,21.27
2022-08-25T01:09:07.964Z,21.19
2022-08-25T01:12:05.860Z,21.16
2022-08-25T01:14:55.823Z,21.12
2022-08-25T01:18:06.402Z,21.09
2022-08-25T01:24:41.083Z,21.02
2022-08-25T01:27:43.770Z,20.98
2022-08-25T01:30:41.055Z,20.95
2022-08-25T01:33:35.122Z,20.94
2022-08-25T01:36:39.265Z,20.90
2022-08-25T01:39:36.386Z,20.86
2022-08-25T01:42:28.242Z,20.84
2022-08-25T01:45:37.587Z,20.80
2022-08-25T01:48:41.907Z,20.76
2022-08-25T01:51:40.886Z,20.73
2022-08-25T01:54:46.226Z,20.69
2022-08-25T01:57:38.503Z,20.66
2022-08-25T02:00:30.696Z,20.62
2022-08-25T02:07:13.229Z,20.59
2022-08-25T02:10:03.430Z,20.55
2022-08-25T02:13:08.374Z,20.51
2022-08-25T02:16:27.875Z,20.49
2022-08-25T02:19:33.473Z,20.46
2022-08-25T02:26:02.151Z,20.40
2022-08-25T02:29:02.727Z,20.36
2022-08-25T02:32:50.495Z,20.32
2022-08-25T02:38:41.623Z,20.27
2022-08-25T02:41:48.955Z,20.24
2022-08-25T02:45:03.756Z,20.19
2022-08-25T02:54:31.040Z,20.12
2022-08-25T02:57:54.332Z,20.08
2022-08-25T03:01:09.989Z,20.04
2022-08-25T03:04:07.709Z,20.01
2022-08-25T03:07:55.345Z,19.98
2022-08-25T03:11:02.842Z,19.95
2022-08-25T03:14:13.901Z,19.91
2022-08-25T03:17:23.490Z,19.89
2022-08-25T03:20:47.717Z,19.85
2022-08-25T03:24:12.797Z,19.82
2022-08-25T03:27:14.450Z,19.79
2022-08-25T03:31:24.065Z,19.75
2022-08-25T03:33:34.739Z,19.72
2022-08-25T03:36:52.509Z,19.70
2022-08-25T03:40:16.538Z,19.66
2022-08-25T03:47:16.578Z,19.60
2022-08-25T03:50:05.368Z,19.58
2022-08-25T03:56:49.324Z,19.51
2022-08-25T04:03:04.619Z,19.45
2022-08-25T04:09:39.496Z,19.39
2022-08-25T04:12:46.316Z,19.37
2022-08-25T04:16:10.320Z,19.35
2022-08-25T04:19:29.818Z,19.31
2022-08-25T04:22:56.321Z,19.28
2022-08-25T04:29:54.109Z,19.20
2022-08-25T04:36:55.581Z,19.15
2022-08-25T04:40:03.895Z,19.11
2022-08-25T04:43:22.477Z,19.09
2022-08-25T04:46:22.525Z,19.06
2022-08-25T04:49:16.520Z,19.04
2022-08-25T04:52:36.653Z,19.02
2022-08-25T05:02:46.276Z,18.95
2022-08-25T05:10:28.740Z,18.89
2022-08-25T05:16:43.309Z,18.86
2022-08-25T05:20:02.554Z,18.85
2022-08-25T05:23:18.293Z,18.84
2022-08-25T05:26:43.341Z,18.83
2022-08-25T05:29:40.316Z,18.81
2022-08-25T05:32:30.187Z,18.80
2022-08-25T05:35:16.953Z,18.79
2022-08-25T05:38:04.509Z,18.78
2022-08-25T05:40:58.408Z,18.76
2022-08-25T05:43:46.151Z,18.74
2022-08-25T05:46:33.005Z,18.73
2022-08-25T05:49:19.812Z,18.71
2022-08-25T05:52:06.796Z,18.71
2022-08-25T05:55:00.272Z,18.68
2022-08-25T05:57:47.099Z,18.69
2022-08-25T06:00:34.126Z,18.69
2022-08-25T06:03:20.901Z,18.69
2022-08-25T06:06:07.770Z,18.71
2022-08-25T06:08:54.476Z,18.73
2022-08-25T06:11:41.475Z,18.76
2022-08-25T06:14:28.229Z,18.79
2022-08-25T06:17:17.824Z,18.82
2022-08-25T06:20:05.764Z,18.84
2022-08-25T06:22:54.028Z,18.89
2022-08-25T06:25:40.986Z,18.92
2022-08-25T06:28:27.672Z,18.96
2022-08-25T06:31:14.458Z,19.02
2022-08-25T06:34:01.203Z,19.09
2022-08-25T06:36:48.975Z,19.14
2022-08-25T06:39:36.233Z,19.16
2022-08-25T06:42:22.942Z,19.20
2022-08-25T06:45:10.036Z,19.23
2022-08-25T06:47:57.538Z,19.28
2022-08-25T06:50:44.737Z,19.30
2022-08-25T06:53:31.416Z,19.34
2022-08-25T06:56:19.050Z,19.39
2022-08-25T06:59:06.641Z,19.43
2022-08-25T07:01:53.485Z,19.49
2022-08-25T07:04:40.266Z,19.56
2022-08-25T07:07:27.002Z,19.65
2022-08-25T07:10:30.075Z,19.74
2022-08-25T07:13:18.420Z,19.85
2022-08-25T07:16:07.696Z,19.94
2022-08-25T07:18:57.391Z,20.02
2022-08-25T07:21:48.915Z,20.12
2022-08-25T07:24:36.062Z,20.23
2022-08-25T07:27:22.893Z,20.31
2022-08-25T07:30:10.002Z,20.39
2022-08-25T07:32:58.285Z,20.47
2022-08-25T07:35:45.296Z,20.56
2022-08-25T07:38:34.035Z,20.66
2022-08-25T07:41:24.681Z,20.77
2022-08-25T07:44:17.738Z,20.87
2022-08-25T07:47:04.911Z,20.97
2022-08-25T07:49:52.474Z,21.06
2022-08-25T07:52:40.174Z,21.15
2022-08-25T07:55:27.240Z,21.26
2022-08-25T07:58:14.297Z,21.34
2022-08-25T08:01:00.990Z,21.44
2022-08-25T08:03:50.607Z,21.53
2022-08-25T08:06:38.389Z,21.65
2022-08-25T08:09:25.146Z,21.73
2022-08-25T08:12:12.058Z,21.83
2022-08-25T08:14:58.760Z,21.92
2022-08-25T08:17:46.405Z,22.03
2022-08-25T08:20:42.665Z,22.11
2022-08-25T08:23:30.495Z,22.19
2022-08-25T08:26:31.793Z,22.28
2022-08-25T08:29:43.441Z,22.39
2022-08-25T08:33:09.200Z,22.48
2022-08-25T08:36:26.494Z,22.57
2022-08-25T08:39:19.065Z,22.66
2022-08-25T08:42:25.171Z,22.73
2022-08-25T08:45:29.020Z,22.82
2022-08-25T08:48:16.249Z,22.92
2022-08-25T08:51:02.946Z,22.99
2022-08-25T08:53:59.417Z,23.10
2022-08-25T08:56:48.325Z,23.18
2022-08-25T08:59:43.639Z,23.24
2022-08-25T09:02:39.408Z,23.31
2022-08-25T09:05:46.708Z,23.35
2022-08-25T09:08:36.808Z,23.35
2022-08-25T09:11:27.196Z,23.37
2022-08-25T09:14:42.709Z,23.38
2022-08-25T09:20:58.758Z,23.45
2022-08-25T09:23:51.491Z,23.49
2022-08-25T09:27:07.555Z,23.54
2022-08-25T09:30:00.327Z,23.60
2022-08-25T09:32:52.380Z,23.64
2022-08-25T09:35:44.550Z,23.67
2022-08-25T09:38:32.078Z,23.71
2022-08-25T09:41:36.164Z,23.75
2022-08-25T09:44:44.194Z,23.80
2022-08-25T09:47:39.434Z,23.87
2022-08-25T09:50:30.996Z,23.95
2022-08-25T09:53:24.478Z,24.06
2022-08-25T09:56:12.678Z,24.15
2022-08-25T09:59:21.796Z,24.25
2022-08-25T10:02:21.512Z,24.39
2022-08-25T10:05:18.878Z,24.52
2022-08-25T10:08:11.454Z,24.63
2022-08-25T10:11:06.524Z,24.75
2022-08-25T10:14:25.250Z,24.88
2022-08-25T10:17:15.526Z,25.01
2022-08-25T10:20:13.774Z,25.10
2022-08-25T10:23:10.741Z,25.17
2022-08-25T10:26:00.576Z,25.24
2022-08-25T10:29:01.409Z,25.33
2022-08-25T10:31:52.845Z,25.38
2022-08-25T10:34:44.569Z,25.44
2022-08-25T10:37:50.427Z,25.51
2022-08-25T10:43:41.276Z,25.58
2022-08-25T10:46:49.401Z,25.61
2022-08-25T10:49:56.507Z,25.67
2022-08-25T10:53:05.292Z,25.71
2022-08-25T10:56:04.490Z,25.76
2022-08-25T10:59:09.126Z,25.82
2022-08-25T11:02:15.024Z,25.87
2022-08-25T11:05:03.786Z,25.94
2022-08-25T11:07:51.872Z,26.02
2022-08-25T11:10:43.191Z,26.08
2022-08-25T11:14:09.405Z,26.12
2022-08-25T11:20:58.995Z,26.25
2022-08-25T11:43:57.199Z,26.87
2022-08-25T11:47:17.536Z,26.94
2022-08-25T11:50:29.918Z,27.01
2022-08-25T11:53:58.086Z,27.08
2022-08-25T11:57:15.701Z,27.16
2022-08-25T12:15:06.196Z,27.37
2022-08-25T12:27:56.790Z,27.62
2022-08-25T12:40:30.618Z,27.84
2022-08-25T12:43:44.819Z,27.90
2022-08-25T12:46:45.939Z,27.96
2022-08-25T12:49:38.549Z,28.00
2022-08-25T12:59:47.048Z,28.13
2022-08-25T13:03:00.253Z,28.19
2022-08-25T13:09:17.412Z,28.26
2022-08-25T13:12:58.016Z,28.31
2022-08-25T13:16:03.826Z,28.38
2022-08-25T13:19:01.414Z,28.44
2022-08-25T13:21:58.955Z,28.48
2022-08-25T13:24:51.295Z,28.52
2022-08-25T13:27:49.458Z,28.57
2022-08-25T13:30:44.059Z,28.63
2022-08-25T13:33:36.639Z,28.67
2022-08-25T13:36:54.039Z,28.72
2022-08-25T13:39:56.344Z,28.80
2022-08-25T13:42:55.487Z,28.86
2022-08-25T13:45:50.562Z,28.93
2022-08-25T13:48:40.101Z,28.97
2022-08-25T13:51:39.410Z,29.02
2022-08-25T13:54:40.899Z,29.08
2022-08-25T13:57:30.433Z,29.13
2022-08-25T14:00:31.706Z,29.17
2022-08-25T14:03:31.741Z,29.24
2022-08-25T14:06:23.538Z,29.28
2022-08-25T14:09:16.501Z,29.30
2022-08-25T14:12:03.491Z,29.33
2022-08-25T14:14:57.548Z,29.36
2022-08-25T14:18:02.624Z,29.37
2022-08-25T14:20:50.600Z,29.42
2022-08-25T14:23:37.622Z,29.45
2022-08-25T14:26:24.399Z,29.47
2022-08-25T14:29:13.954Z,29.47
2022-08-25T14:32:01.941Z,29.48
2022-08-25T14:35:25.829Z,29.48
2022-08-25T14:39:31.207Z,29.48
2022-08-25T14:46:03.676Z,29.50
2022-08-25T14:50:16.134Z,29.54
2022-08-25T14:53:41.613Z,29.55
2022-08-25T14:56:44.563Z,29.54
2022-08-25T15:03:48.122Z,29.56
2022-08-25T15:10:45.505Z,29.58
2022-08-25T15:17:09.187Z,29.57
2022-08-25T15:20:08.966Z,29.58
2022-08-25T15:23:16.002Z,29.57
2022-08-25T15:26:16.236Z,29.57
2022-08-25T15:33:11.645Z,29.58
2022-08-25T15:35:58.405Z,29.56
2022-08-25T15:38:52.644Z,29.58
2022-08-25T15:41:39.417Z,29.61
2022-08-25T15:44:29.791Z,29.64
2022-08-25T15:47:16.787Z,29.67
2022-08-25T15:50:14.453Z,29.71
2022-08-25T15:53:02.502Z,29.75
2022-08-25T15:55:49.300Z,29.76
2022-08-25T15:58:39.469Z,29.72
2022-08-25T16:01:37.183Z,29.67
2022-08-25T16:04:24.538Z,29.66
2022-08-25T16:07:13.396Z,29.64
2022-08-25T16:10:00.269Z,29.61
2022-08-25T16:12:47.088Z,29.59
2022-08-25T16:15:33.936Z,29.57
2022-08-25T16:18:20.973Z,29.51
2022-08-25T16:21:17.413Z,29.43
2022-08-25T16:24:08.005Z,29.38
2022-08-25T16:27:00.231Z,29.36
2022-08-25T16:29:58.070Z,29.33
2022-08-25T16:32:45.017Z,29.32
2022-08-25T16:35:31.758Z,29.30
2022-08-25T16:38:22.116Z,29.28
2022-08-25T16:41:12.945Z,29.23
2022-08-25T16:44:12.988Z,29.11
2022-08-25T16:47:08.761Z,29.08
2022-08-25T16:50:00.414Z,29.05
2022-08-25T16:53:19.858Z,29.03
2022-08-25T16:56:13.433Z,28.99
2022-08-25T16:59:00.761Z,28.96
2022-08-25T17:01:58.740Z,28.90
2022-08-25T17:04:45.500Z,28.79
2022-08-25T17:07:33.155Z,28.70
2022-08-25T17:10:19.901Z,28.64
2022-08-25T17:13:09.521Z,28.57
2022-08-25T17:15:56.256Z,28.52
2022-08-25T17:18:42.976Z,28.46
2022-08-25T17:21:35.976Z,28.40
2022-08-25T17:24:29.198Z,28.43
2022-08-25T17:27:21.559Z,28.45
2022-08-25T17:30:08.826Z,28.47
2022-08-25T17:33:00.072Z,28.47
2022-08-25T17:35:50.602Z,28.48
2022-08-25T17:38:40.514Z,28.45
2022-08-25T17:41:29.232Z,28.43
2022-08-25T17:44:18.158Z,28.40
2022-08-25T17:47:25.240Z,28.38
2022-08-25T17:50:37.471Z,28.36
2022-08-25T17:53:25.819Z,28.34
2022-08-25T17:56:13.964Z,28.30
2022-08-25T17:59:24.397Z,28.26
2022-08-25T18:02:11.359Z,28.20
2022-08-25T18:05:04.614Z,28.14
2022-08-25T18:07:54.148Z,28.11
2022-08-25T18:10:43.402Z,28.13
2022-08-25T18:13:31.504Z,28.16
2022-08-25T18:16:18.350Z,28.18
2022-08-25T18:19:05.086Z,28.20
2022-08-25T18:21:59.395Z,28.21
2022-08-25T18:31:00.709Z,28.23
2022-08-25T18:33:52.191Z,28.22
2022-08-25T18:36:43.653Z,28.21
2022-08-25T18:39:55.493Z,28.20
2022-08-25T18:42:42.358Z,28.18
2022-08-25T18:45:41.525Z,28.14
2022-08-25T18:48:28.341Z,28.12
2022-08-25T18:51:25.496Z,28.11
2022-08-25T18:54:25.175Z,28.07
2022-08-25T18:57:23.339Z,28.05
2022-08-25T19:00:24.232Z,28.02
2022-08-25T19:04:34.009Z,27.97
2022-08-25T19:15:14.322Z,27.82
2022-08-25T20:33:40.085Z,26.81
2022-08-25T21:07:23.883Z,26.32
2022-08-25T21:10:28.278Z,26.27
2022-08-25T21:13:32.155Z,26.24
2022-08-25T21:22:42.436Z,26.09
2022-08-25T21:29:34.404Z,26.00
2022-08-25T21:32:53.132Z,25.96
2022-08-25T21:39:13.244Z,25.85
2022-08-25T21:45:06.220Z,25.77
2022-08-25T21:48:13.044Z,25.72
2022-08-25T21:51:22.098Z,25.69
2022-08-25T21:54:24.152Z,25.64
2022-08-25T22:00:33.933Z,25.55
2022-08-25T22:03:26.902Z,25.51
2022-08-25T22:06:30.946Z,25.45
2022-08-25T22:09:24.952Z,25.42
2022-08-25T22:12:20.999Z,25.39
2022-08-25T22:15:08.238Z,25.34
2022-08-25T22:18:24.731Z,25.30
2022-08-25T22:21:38.515Z,25.26
2022-08-25T22:24:38.699Z,25.22
2022-08-25T22:27:32.173Z,25.18
2022-08-25T22:30:21.522Z,25.14
2022-08-25T22:41:42.766Z,24.96
